Atqasuk, Alaska
Current Conditions -  °F | °C
As of 5:56 AM on Monday 24 Nov 2014 (Local Time) from PATQ Reporting Station
Light Snow Light Snow  
Wind Chill: -12°   Ceiling: 2200
Heat Index: -2°   Visibility: 6mi
Dew Point: -6°   Wind: 5mph
Humidity: 83%   Direction: 360°N
Pressure: 29.8"   Gusts: NA
Location:  70.47°N, 157.4°W
Report Text: PATQ 241456Z AUTO 36004KT 6SM -SN BR OVC022 M19/M21 A2980 RMK AO2 TSNO 51005 60000 T11881211 P0000 SLP097 $
Loading
Personal Weather Stations






























Interactive Weather Map New forecast layout! Learn more

10-Day Weather Forecast

Advertisements
Track Severe Weather on mobile